Time;durP1;ratioP1;P1;durP2;ratioP2;P2;SDS_P1;SDS_P2;PMS_P1;PMS_P2;Temp;Humidity;BMP_temperature;BMP_pressure;BME280_temperature;BME280_humidity;BME280_pressure;Samples;Min_cycle;Max_cycle;Signal;HPM_P1;HPM_P2
2023/12/31 00:00:03;;;;;;;;;;;;;;;;;;5042744;28;20131;-54
2023/12/31 00:02:29;;;;;;;;;;;;;;;;;;5042727;28;20178;-54
2023/12/31 00:04:55;;;;;;;;;;;;;;;;;;5042892;28;19908;-51
2023/12/31 00:07:22;;;;;;;;;;;;;;;;;;5042806;28;20066;-56
2023/12/31 00:09:48;;;;;;;;;;;;;;;;;;5042648;28;20248;-57
2023/12/31 00:12:14;;;;;;;;;;;;;;;;;;5042632;28;19942;-53
2023/12/31 00:14:40;;;;;;;;;;;;;;;;;;5042768;28;19901;-51
2023/12/31 00:17:06;;;;;;;;;;;;;;;;;;5042862;28;20246;-51
2023/12/31 00:19:32;;;;;;;;;;;;;;;;;;5038018;28;19917;-57
2023/12/31 00:21:59;;;;;;;;;;;;;;;;;;5031907;28;19959;-52
2023/12/31 00:24:25;;;;;;;;;;;;;;;;;;5042349;28;20097;-54
2023/12/31 00:26:51;;;;;;;;;;;;;;;;;;5022607;28;19909;-56
2023/12/31 00:29:17;;;;;;;;;;;;;;;;;;5039778;28;19947;-54
2023/12/31 00:31:43;;;;;;;;;;;;;;;;;;5040460;28;20211;-52
2023/12/31 00:34:10;;;;;;;;;;;;;;;;;;5042070;28;19968;-51
2023/12/31 00:36:36;;;;;;;;;;;;;;;;;;5042113;28;19965;-54
2023/12/31 00:39:02;;;;;;;;;;;;;;;;;;5041248;28;20134;-58
2023/12/31 00:41:29;;;;;;;;;;;;;;;;;;5042002;28;19968;-55
2023/12/31 00:43:55;;;;;;;;;;;;;;;;;;5042416;28;20228;-51
2023/12/31 00:46:21;;;;;;;;;;;;;;;;;;5040444;28;19923;-55
2023/12/31 00:48:47;;;;;;;;;;;;;;;;;;5022193;28;19901;-52
2023/12/31 00:51:13;;;;;;;;;;;;;;;;;;5022728;28;19901;-56
2023/12/31 00:53:40;;;;;;;;;;;;;;;;;;5022064;28;19917;-51
2023/12/31 00:56:06;;;;;;;;;;;;;;;;;;5021950;28;19901;-52
2023/12/31 00:58:32;;;;;;;;;;;;;;;;;;5022656;28;19937;-56
2023/12/31 01:00:58;;;;;;;;;;;;;;;;;;5022168;28;19964;-56
2023/12/31 01:03:24;;;;;;;;;;;;;;;;;;5022549;28;19920;-52
2023/12/31 01:05:51;;;;;;;;;;;;;;;;;;5022288;28;20209;-52
2023/12/31 01:08:17;;;;;;;;;;;;;;;;;;5028502;28;19916;-50
2023/12/31 01:10:43;;;;;;;;;;;;;;;;;;5041402;28;19900;-50
2023/12/31 01:13:09;;;;;;;;;;;;;;;;;;5041504;28;19971;-59
2023/12/31 01:15:35;;;;;;;;;;;;;;;;;;5039963;28;19905;-54
2023/12/31 01:18:01;;;;;;;;;;;;;;;;;;5031436;28;19909;-54
2023/12/31 01:20:28;;;;;;;;;;;;;;;;;;5033208;28;19907;-53
2023/12/31 01:22:54;;;;;;;;;;;;;;;;;;5036072;28;19909;-51
2023/12/31 01:25:20;;;;;;;;;;;;;;;;;;5026179;28;20298;-53
2023/12/31 01:27:46;;;;;;;;;;;;;;;;;;5025130;28;19910;-52
2023/12/31 01:30:12;;;;;;;;;;;;;;;;;;5030183;28;19909;-54
2023/12/31 01:32:39;;;;;;;;;;;;;;;;;;5022119;28;19913;-55
2023/12/31 01:35:05;;;;;;;;;;;;;;;;;;5021520;28;20131;-51
2023/12/31 01:37:31;;;;;;;;;;;;;;;;;;5021912;28;19944;-52
2023/12/31 01:39:57;;;;;;;;;;;;;;;;;;5032262;28;19928;-53
2023/12/31 01:42:23;;;;;;;;;;;;;;;;;;5033663;28;19944;-58
2023/12/31 01:44:50;;;;;;;;;;;;;;;;;;5033829;28;20127;-53
2023/12/31 01:47:17;;;;;;;;;;;;;;;;;;5033815;28;19909;-52
2023/12/31 01:49:43;;;;;;;;;;;;;;;;;;5026792;28;19902;-53
2023/12/31 01:52:11;;;;;;;;;;;;;;;;;;5023381;28;20246;-55
2023/12/31 01:54:37;;;;;;;;;;;;;;;;;;5030121;28;20097;-57
2023/12/31 01:57:03;;;;;;;;;;;;;;;;;;5021611;28;19917;-53
2023/12/31 01:59:29;;;;;;;;;;;;;;;;;;5021248;28;19917;-49
2023/12/31 02:01:56;;;;;;;;;;;;;;;;;;5038297;28;19917;-47
2023/12/31 02:04:22;;;;;;;;;;;;;;;;;;5030300;28;19985;-54
2023/12/31 02:06:48;;;;;;;;;;;;;;;;;;5021198;28;20025;-54
2023/12/31 02:09:15;;;;;;;;;;;;;;;;;;5021386;28;19923;-45
2023/12/31 02:11:41;;;;;;;;;;;;;;;;;;5021373;28;19916;-54
2023/12/31 02:14:07;;;;;;;;;;;;;;;;;;5021031;28;19906;-60
2023/12/31 02:16:33;;;;;;;;;;;;;;;;;;5021212;28;20074;-58
2023/12/31 02:18:59;;;;;;;;;;;;;;;;;;5021321;28;19902;-57
2023/12/31 02:21:26;;;;;;;;;;;;;;;;;;5024075;28;19973;-50
2023/12/31 02:23:52;;;;;;;;;;;;;;;;;;5032525;28;19905;-48
2023/12/31 02:26:18;;;;;;;;;;;;;;;;;;5039135;28;19909;-54
2023/12/31 02:28:44;;;;;;;;;;;;;;;;;;5033704;28;19901;-52
2023/12/31 02:31:11;;;;;;;;;;;;;;;;;;5044337;28;19932;-52
2023/12/31 02:33:37;;;;;;;;;;;;;;;;;;5044647;28;19913;-56
2023/12/31 02:36:03;;;;;;;;;;;;;;;;;;5031937;28;19905;-48
2023/12/31 02:38:29;;;;;;;;;;;;;;;;;;5032189;28;19953;-53
2023/12/31 02:40:55;;;;;;;;;;;;;;;;;;5024512;28;19902;-55
2023/12/31 02:43:22;;;;;;;;;;;;;;;;;;5024780;28;19951;-54
2023/12/31 02:45:48;;;;;;;;;;;;;;;;;;5024225;28;20169;-51
2023/12/31 02:48:14;;;;;;;;;;;;;;;;;;5024745;28;19986;-56
2023/12/31 02:50:40;;;;;;;;;;;;;;;;;;5024137;28;19901;-52
2023/12/31 02:53:06;;;;;;;;;;;;;;;;;;5027192;28;19963;-54
2023/12/31 02:55:32;;;;;;;;;;;;;;;;;;5047117;28;20108;-57
2023/12/31 02:57:58;;;;;;;;;;;;;;;;;;5029290;28;19917;-57
2023/12/31 03:00:25;;;;;;;;;;;;;;;;;;5038356;28;19901;-49
2023/12/31 03:02:51;;;;;;;;;;;;;;;;;;5044069;28;20191;-50
2023/12/31 03:05:17;;;;;;;;;;;;;;;;;;5037561;28;19905;-52
2023/12/31 03:07:43;;;;;;;;;;;;;;;;;;5026226;28;19913;-51
2023/12/31 03:10:09;;;;;;;;;;;;;;;;;;5023763;28;19908;-52
2023/12/31 03:12:36;;;;;;;;;;;;;;;;;;5023926;28;19921;-55
2023/12/31 03:15:03;;;;;;;;;;;;;;;;;;5023566;28;19901;-57
2023/12/31 03:17:29;;;;;;;;;;;;;;;;;;5023898;28;20163;-59
2023/12/31 03:19:55;;;;;;;;;;;;;;;;;;5023701;28;19905;-57
2023/12/31 03:22:22;;;;;;;;;;;;;;;;;;5023524;28;19910;-55
2023/12/31 03:24:48;;;;;;;;;;;;;;;;;;5023675;28;19940;-57
2023/12/31 03:27:14;;;;;;;;;;;;;;;;;;5023651;28;19948;-56
2023/12/31 03:29:40;;;;;;;;;;;;;;;;;;5023528;28;19902;-55
2023/12/31 03:32:06;;;;;;;;;;;;;;;;;;5023591;28;20202;-58
2023/12/31 03:34:33;;;;;;;;;;;;;;;;;;5023552;28;19901;-57
2023/12/31 03:36:59;;;;;;;;;;;;;;;;;;5023194;28;19910;-58
2023/12/31 03:39:26;;;;;;;;;;;;;;;;;;5023406;28;20212;-56
2023/12/31 03:41:52;;;;;;;;;;;;;;;;;;5023609;28;19980;-56
2023/12/31 03:44:18;;;;;;;;;;;;;;;;;;5023440;28;19901;-57
2023/12/31 03:46:44;;;;;;;;;;;;;;;;;;5023413;28;20123;-56
2023/12/31 03:49:11;;;;;;;;;;;;;;;;;;5023375;28;19937;-56
2023/12/31 03:51:37;;;;;;;;;;;;;;;;;;5029727;28;19909;-55
2023/12/31 03:54:05;;;;;;;;;;;;;;;;;;5033690;28;20110;-58
2023/12/31 03:56:31;;;;;;;;;;;;;;;;;;5023151;28;19908;-59
2023/12/31 03:58:58;;;;;;;;;;;;;;;;;;5023313;28;19901;-58
2023/12/31 04:01:24;;;;;;;;;;;;;;;;;;5022958;28;19901;-59
2023/12/31 04:03:50;;;;;;;;;;;;;;;;;;5023442;28;20070;-60
2023/12/31 04:06:16;;;;;;;;;;;;;;;;;;5022972;28;19902;-57
2023/12/31 04:08:42;;;;;;;;;;;;;;;;;;5034090;28;19968;-59
2023/12/31 04:11:08;;;;;;;;;;;;;;;;;;5023026;28;19930;-58
2023/12/31 04:13:35;;;;;;;;;;;;;;;;;;5023333;28;20197;-58
2023/12/31 04:16:01;;;;;;;;;;;;;;;;;;5023057;28;20240;-48
2023/12/31 04:18:27;;;;;;;;;;;;;;;;;;5023334;28;19977;-51
2023/12/31 04:20:53;;;;;;;;;;;;;;;;;;5022769;28;19908;-57
2023/12/31 04:23:20;;;;;;;;;;;;;;;;;;5022753;28;20219;-53
2023/12/31 04:25:46;;;;;;;;;;;;;;;;;;5022691;28;19950;-55
2023/12/31 04:28:12;;;;;;;;;;;;;;;;;;5023282;28;19910;-50
2023/12/31 04:30:40;;;;;;;;;;;;;;;;;;5022678;28;20192;-51
2023/12/31 04:33:06;;;;;;;;;;;;;;;;;;5034963;28;19913;-56
2023/12/31 04:35:33;;;;;;;;;;;;;;;;;;5042397;28;19905;-59
2023/12/31 04:37:59;;;;;;;;;;;;;;;;;;5042673;28;20096;-54
2023/12/31 04:40:25;;;;;;;;;;;;;;;;;;5042109;28;19908;-55
2023/12/31 04:42:51;;;;;;;;;;;;;;;;;;5042081;28;19916;-57
2023/12/31 04:45:17;;;;;;;;;;;;;;;;;;5042318;28;20189;-52
2023/12/31 04:47:44;;;;;;;;;;;;;;;;;;5041602;28;19972;-54
2023/12/31 04:50:10;;;;;;;;;;;;;;;;;;5042233;28;19901;-57
2023/12/31 04:52:37;;;;;;;;;;;;;;;;;;5042077;28;19991;-56
2023/12/31 04:55:03;;;;;;;;;;;;;;;;;;5041921;28;19940;-54
2023/12/31 04:57:29;;;;;;;;;;;;;;;;;;5121553;27;19910;-54
2023/12/31 04:59:55;;;;;;;;;;;;;;;;;;5146312;27;19931;-54
2023/12/31 05:02:21;;;;;;;;;;;;;;;;;;5146436;27;19967;-54
2023/12/31 05:04:47;;;;;;;;;;;;;;;;;;5146029;27;19910;-57
2023/12/31 05:07:14;;;;;;;;;;;;;;;;;;5092325;27;19931;-55
2023/12/31 05:09:40;;;;;;;;;;;;;;;;;;5061735;28;19901;-52
2023/12/31 05:12:06;;;;;;;;;;;;;;;;;;5061598;28;19909;-56
2023/12/31 05:14:32;;;;;;;;;;;;;;;;;;5123354;27;19906;-59
2023/12/31 05:16:58;;;;;;;;;;;;;;;;;;5061727;28;19979;-54
2023/12/31 05:19:25;;;;;;;;;;;;;;;;;;5061362;28;19900;-54
2023/12/31 05:21:51;;;;;;;;;;;;;;;;;;5045919;28;19928;-53
2023/12/31 05:24:17;;;;;;;;;;;;;;;;;;5041597;28;19912;-57
2023/12/31 05:26:43;;;;;;;;;;;;;;;;;;5041433;28;20081;-59
2023/12/31 05:29:10;;;;;;;;;;;;;;;;;;5041627;28;19943;-60
2023/12/31 05:31:36;;;;;;;;;;;;;;;;;;5041434;28;19962;-55
2023/12/31 05:34:03;;;;;;;;;;;;;;;;;;5041141;28;19909;-50
2023/12/31 05:36:29;;;;;;;;;;;;;;;;;;5041631;28;19900;-57
2023/12/31 05:38:55;;;;;;;;;;;;;;;;;;5041502;28;19912;-57
2023/12/31 05:41:21;;;;;;;;;;;;;;;;;;5041239;28;19901;-58
2023/12/31 05:43:47;;;;;;;;;;;;;;;;;;5041518;28;20227;-52
2023/12/31 05:46:14;;;;;;;;;;;;;;;;;;5041231;28;19901;-54
2023/12/31 05:48:40;;;;;;;;;;;;;;;;;;5041067;28;19905;-50
2023/12/31 05:51:06;;;;;;;;;;;;;;;;;;5041419;28;19968;-52
2023/12/31 05:53:32;;;;;;;;;;;;;;;;;;5041090;28;19952;-58
2023/12/31 05:55:58;;;;;;;;;;;;;;;;;;5054351;28;19912;-51
2023/12/31 05:58:24;;;;;;;;;;;;;;;;;;5061778;28;19909;-61
2023/12/31 06:00:51;;;;;;;;;;;;;;;;;;5102834;27;19899;-59
2023/12/31 06:03:17;;;;;;;;;;;;;;;;;;5065082;28;19909;-51
2023/12/31 06:05:43;;;;;;;;;;;;;;;;;;5064791;28;19900;-49
2023/12/31 06:08:09;;;;;;;;;;;;;;;;;;5064980;28;19909;-59
2023/12/31 06:10:35;;;;;;;;;;;;;;;;;;5064534;28;19901;-54
2023/12/31 06:13:02;;;;;;;;;;;;;;;;;;5064657;28;19912;-56
2023/12/31 06:15:28;;;;;;;;;;;;;;;;;;5064565;28;19908;-50
2023/12/31 06:17:54;;;;;;;;;;;;;;;;;;5064759;28;19908;-57
2023/12/31 06:20:20;;;;;;;;;;;;;;;;;;5134760;27;19899;-54
2023/12/31 06:22:46;;;;;;;;;;;;;;;;;;5149515;27;19907;-55
2023/12/31 06:25:13;;;;;;;;;;;;;;;;;;5149256;27;19906;-55
2023/12/31 06:27:39;;;;;;;;;;;;;;;;;;5149176;27;19948;-61
2023/12/31 06:30:05;;;;;;;;;;;;;;;;;;5149025;27;19900;-56
2023/12/31 06:32:31;;;;;;;;;;;;;;;;;;5149323;27;20191;-53
2023/12/31 06:34:58;;;;;;;;;;;;;;;;;;5148762;27;19899;-53
2023/12/31 06:37:24;;;;;;;;;;;;;;;;;;5149186;27;19911;-54
2023/12/31 06:39:51;;;;;;;;;;;;;;;;;;5148857;27;20094;-57
2023/12/31 06:42:17;;;;;;;;;;;;;;;;;;5148995;27;19915;-56
2023/12/31 06:44:43;;;;;;;;;;;;;;;;;;5148665;27;20166;-52
2023/12/31 06:47:10;;;;;;;;;;;;;;;;;;5148816;27;20077;-52
2023/12/31 06:49:37;;;;;;;;;;;;;;;;;;5148629;27;19900;-53
2023/12/31 06:52:04;;;;;;;;;;;;;;;;;;5103354;27;20275;-54
2023/12/31 06:54:30;;;;;;;;;;;;;;;;;;5063824;28;19897;-52
2023/12/31 06:56:57;;;;;;;15.70;11.20;;;;;;;;;;5063846;28;20097;-53
2023/12/31 06:59:24;;;;;;;15.70;10.48;;;;;;;;;;5063153;28;20029;-56
2023/12/31 07:01:50;;;;;;;14.65;9.63;;;;;;;;;;5063306;28;20047;-54
2023/12/31 07:04:17;;;;;;;14.70;10.85;;;;;;;;;;5063522;28;20044;-54
2023/12/31 07:06:43;;;;;;;14.00;9.98;;;;;;;;;;5063037;28;20025;-59
2023/12/31 07:09:11;;;;;;;15.73;10.85;;;;;;;;;;5063510;28;20061;-51
2023/12/31 07:11:38;;;;;;;14.40;10.50;;;;;;;;;;5062378;28;20309;-55
2023/12/31 07:14:04;;;;;;;13.32;9.75;;;;;;;;;;5062824;28;20202;-58
2023/12/31 07:16:31;;;;;;;14.18;9.60;;;;;;;;;;5063095;28;20295;-54
2023/12/31 07:18:57;;;;;;;13.80;9.98;;;;;;;;;;5063073;28;20251;-54
2023/12/31 07:21:24;;;;;;;14.00;9.77;;;;;;;;;;5062783;28;20017;-53
2023/12/31 07:23:51;;;;;;;14.70;10.02;;;;;;;;;;5063046;28;20021;-51
2023/12/31 07:26:27;;;;;;;13.35;9.75;;;;;;;;;;5062875;28;20312;-52
2023/12/31 07:28:54;;;;;;;13.45;9.77;;;;;;;;;;5062765;28;20033;-58
2023/12/31 07:31:20;;;;;;;14.50;10.43;;;;;;;;;;5062805;28;20028;-51
2023/12/31 07:33:47;;;;;;;16.50;9.63;;;;;;;;;;5062700;28;20057;-54
2023/12/31 07:36:14;;;;;;;11.38;9.55;;;;;;;;;;5062632;28;20044;-52
2023/12/31 07:38:44;;;;;;;11.50;9.40;;;;;;;;;;5062708;28;20287;-58
2023/12/31 07:41:12;;;;;;;15.65;9.57;;;;;;;;;;5063013;28;20213;-55
2023/12/31 07:43:40;;;;;;;13.98;9.63;;;;;;;;;;5062619;28;20063;-53
2023/12/31 07:46:06;;;;;;;;;;;;;;;;;;5063017;28;20025;-57
2023/12/31 07:48:33;;;;;;;;;;;;;;;;;;5063511;28;19990;-59
2023/12/31 07:50:59;;;;;;;;;;;;;;;;;;5062831;28;19909;-55
2023/12/31 07:53:25;;;;;;;;;;;;;;;;;;5062687;28;19984;-54
2023/12/31 07:55:51;;;;;;;;;;;;;;;;;;5062847;28;20074;-56
2023/12/31 07:58:18;;;;;;;;;;;;;;;;;;5063124;28;19948;-54
2023/12/31 08:00:44;;;;;;;;;;;;;;;;;;5062700;28;19966;-51
2023/12/31 08:03:10;;;;;;;;;;;;;;;;;;5062692;28;20265;-51
2023/12/31 08:05:37;;;;;;;;;;;;;;;;;;5062568;28;20100;-50
2023/12/31 08:08:05;;;;;;;;;;;;;;;;;;5063049;28;19920;-56
2023/12/31 08:10:32;;;;;;;;;;;;;;;;;;5062615;28;19905;-50
2023/12/31 08:12:59;;;;;;;;;;;;;;;;;;5062701;28;20253;-55
2023/12/31 08:15:25;;;;;;;;;;;;;;;;;;5062561;28;20003;-55
2023/12/31 08:17:51;;;;;;;;;;;;;;;;;;5062979;28;19913;-62
2023/12/31 08:20:18;;;;;;;;;;;;;;;;;;5062408;28;19942;-56
2023/12/31 08:22:44;;;;;;;;;;;;;;;;;;5061134;28;19920;-52
2023/12/31 08:25:10;;;;;;;;;;;;;;;;;;5062595;28;19904;-53
2023/12/31 08:27:36;;;;;;;;;;;;;;;;;;5062574;28;19912;-57
2023/12/31 08:30:02;;;;;;;;;;;;;;;;;;5062311;28;20134;-54
2023/12/31 08:32:29;;;;;;;;;;;;;;;;;;5062837;28;19976;-53
2023/12/31 08:34:55;;;;;;;;;;;;;;;;;;5062137;28;19942;-52
2023/12/31 08:37:21;;;;;;;;;;;;;;;;;;5062442;28;19956;-53
2023/12/31 08:39:48;;;;;;;;;;;;;;;;;;5062368;28;19945;-53
2023/12/31 08:42:14;;;;;;;;;;;;;;;;;;5062374;28;19912;-50
2023/12/31 08:44:40;;;;;;;;;;;;;;;;;;5061900;28;19926;-53
2023/12/31 08:47:06;;;;;;;;;;;;;;;;;;5062160;28;19920;-54
2023/12/31 08:49:32;;;;;;;;;;;;;;;;;;5062089;28;19905;-54
2023/12/31 08:51:58;;;;;;;;;;;;;;;;;;5061719;28;20193;-54
2023/12/31 08:54:25;;;;;;;;;;;;;;;;;;5062052;28;19937;-56
2023/12/31 08:56:51;;;;;;;;;;;;;;;;;;5062137;28;19916;-54
2023/12/31 08:59:17;;;;;;;;;;;;;;;;;;5061971;28;19905;-50
2023/12/31 09:01:43;;;;;;;;;;;;;;;;;;5062357;28;19935;-54
2023/12/31 09:04:10;;;;;;;;;;;;;;;;;;5061845;28;19912;-48
2023/12/31 09:06:37;;;;;;;;;;;;;;;;;;5061877;28;19913;-48
2023/12/31 09:09:04;;;;;;;;;;;;;;;;;;5061691;28;19904;-51
2023/12/31 09:11:31;;;;;;;;;;;;;;;;;;5061664;28;19912;-55
2023/12/31 09:13:57;;;;;;;;;;;;;;;;;;5061703;28;19909;-52
2023/12/31 09:16:24;;;;;;;;;;;;;;;;;;5061568;28;19928;-49
2023/12/31 09:18:50;;;;;;;;;;;;;;;;;;5062180;28;19911;-55
2023/12/31 09:21:16;;;;;;;;;;;;;;;;;;5061969;28;19905;-54
2023/12/31 09:23:42;;;;;;;;;;;;;;;;;;5062152;28;19912;-52
2023/12/31 09:26:10;;;;;;;;;;;;;;;;;;5062098;28;19946;-56
2023/12/31 09:28:36;;;;;;;;;;;;;;;;;;5062429;28;19913;-51
2023/12/31 09:31:02;;;;;;;;;;;;;;;;;;5061874;28;19916;-53
2023/12/31 09:33:29;;;;;;;;;;;;;;;;;;5062570;28;20211;-55
2023/12/31 09:35:55;;;;;;;;;;;;;;;;;;5061423;28;20197;-57
2023/12/31 09:38:21;;;;;;;;;;;;;;;;;;5061680;28;19917;-51
2023/12/31 09:40:47;;;;;;;;;;;;;;;;;;5061266;28;19971;-48
2023/12/31 09:43:13;;;;;;;;;;;;;;;;;;5061747;28;19912;-53
2023/12/31 09:45:40;;;;;;;;;;;;;;;;;;5061138;28;19904;-49
2023/12/31 09:48:06;;;;;;;;;;;;;;;;;;5061510;28;19920;-49
2023/12/31 09:50:32;;;;;;;;;;;;;;;;;;5061292;28;19905;-51
2023/12/31 09:52:59;;;;;;;;;;;;;;;;;;5060851;28;20059;-55
2023/12/31 09:55:28;;;;;;;;;;;;;;;;;;5060359;28;20360;-53
2023/12/31 09:57:54;;;;;;;;;;;;;;;;;;5061407;28;19909;-51
2023/12/31 10:00:21;;;;;;;;;;;;;;;;;;5060882;28;20022;-48
2023/12/31 10:02:47;;;;;;;;;;;;;;;;;;5060891;28;19962;-49
2023/12/31 10:05:13;;;;;;;;;;;;;;;;;;5061135;28;19949;-49
2023/12/31 10:07:39;;;;;;;;;;;;;;;;;;5060821;28;19905;-49
2023/12/31 10:10:05;;;;;;;;;;;;;;;;;;5061128;28;19984;-49
2023/12/31 10:12:32;;;;;;;;;;;;;;;;;;5061134;28;19909;-49
2023/12/31 10:14:58;;;;;;;;;;;;;;;;;;5060781;28;19920;-53
2023/12/31 10:17:26;;;;;;;;;;;;;;;;;;5060943;28;19909;-49
2023/12/31 10:19:52;;;;;;;;;;;;;;;;;;5060752;28;19913;-49
2023/12/31 10:22:19;;;;;;;;;;;;;;;;;;5060492;28;19926;-48
2023/12/31 10:24:45;;;;;;;;;;;;;;;;;;5060680;28;19917;-54
2023/12/31 10:27:11;;;;;;;;;;;;;;;;;;5059191;28;19928;-48
2023/12/31 10:29:37;;;;;;;;;;;;;;;;;;5042588;28;19931;-50
2023/12/31 10:32:04;;;;;;;;;;;;;;;;;;5051022;28;19920;-49
2023/12/31 10:34:30;;;;;;;;;;;;;;;;;;5057033;28;19909;-49
2023/12/31 10:36:57;;;;;;;;;;;;;;;;;;5060625;28;19930;-51
2023/12/31 10:39:23;;;;;;;;;;;;;;;;;;5060340;28;20085;-52
2023/12/31 10:41:49;;;;;;;;;;;;;;;;;;5060544;28;19909;-54
2023/12/31 10:44:15;;;;;;;;;;;;;;;;;;5060605;28;19947;-49
2023/12/31 10:46:41;;;;;;;;;;;;;;;;;;5062465;28;20088;-48
2023/12/31 10:49:07;;;;;;;;;;;;;;;;;;5063917;28;19909;-54
2023/12/31 10:51:33;;;;;;;;;;;;;;;;;;5063859;28;19984;-54
2023/12/31 10:54:00;;;;;;;;;;;;;;;;;;5063400;28;19920;-58
2023/12/31 10:56:26;;;;;;;;;;;;;;;;;;5063616;28;19905;-54
2023/12/31 10:58:52;;;;;;;;;;;;;;;;;;5063656;28;20032;-52
2023/12/31 11:01:18;;;;;;;;;;;;;;;;;;5063494;28;19905;-52
2023/12/31 11:03:45;;;;;;;;;;;;;;;;;;5063872;28;19930;-51
2023/12/31 11:06:11;;;;;;;;;;;;;;;;;;5062420;28;20078;-55
2023/12/31 11:08:37;;;;;;;;;;;;;;;;;;5062260;28;19909;-54
2023/12/31 11:11:03;;;;;;;;;;;;;;;;;;5065675;27;19921;-53
2023/12/31 11:13:29;;;;;;;;;;;;;;;;;;5025288;28;19938;-52
2023/12/31 11:15:56;;;;;;;;;;;;;;;;;;5112394;27;19912;-56
2023/12/31 11:18:22;;;;;;;;;;;;;;;;;;5147845;27;19907;-54
2023/12/31 11:20:48;;;;;;;;;;;;;;;;;;5148154;27;19907;-56
2023/12/31 11:23:15;;;;;;;;;;;;;;;;;;5142461;27;19972;-54
2023/12/31 11:25:41;;;;;;;;;;;;;;;;;;5063493;28;20141;-49
2023/12/31 11:28:07;;;;;;;;;;;;;;;;;;5063911;28;19994;-49
2023/12/31 11:30:33;;;;;;;;;;;;;;;;;;5063556;28;19953;-49
2023/12/31 11:33:00;;;;;;;;;;;;;;;;;;5063469;28;19919;-49
2023/12/31 11:35:26;;;;;;;;;;;;;;;;;;5063216;28;19912;-54
2023/12/31 11:37:52;;;;;;;;;;;;;;;;;;5063102;28;19916;-54
2023/12/31 11:40:18;;;;;;;;;;;;;;;;;;5098731;27;19915;-51
2023/12/31 11:42:44;;;;;;;;;;;;;;;;;;5147455;27;20178;-47
2023/12/31 11:45:10;;;;;;;;;;;;;;;;;;5147595;27;19915;-55
2023/12/31 11:47:38;;;;;;;;;;;;;;;;;;5098553;27;19950;-53
2023/12/31 11:50:05;;;;;;;;;;;;;;;;;;5063237;28;19909;-50
2023/12/31 11:52:32;;;;;;;;;;;;;;;;;;5084657;27;19990;-50
2023/12/31 11:54:59;;;;;;;;;;;;;;;;;;5147334;27;19907;-57
2023/12/31 11:57:25;;;;;;;;;;;;;;;;;;5147475;27;19930;-50
2023/12/31 11:59:52;;;;;;;;;;;;;;;;;;5147365;27;19949;-50
2023/12/31 12:02:18;;;;;;;;;;;;;;;;;;5147121;27;19918;-59
2023/12/31 12:04:44;;;;;;;;;;;;;;;;;;5147212;27;19915;-49
2023/12/31 12:07:10;;;;;;;;;;;;;;;;;;5147356;27;19929;-50
2023/12/31 12:09:37;;;;;;;;;;;;;;;;;;5103304;27;19951;-55
2023/12/31 12:12:03;;;;;;;;;;;;;;;;;;5042963;28;20066;-55
2023/12/31 12:14:29;;;;;;;;;;;;;;;;;;5042756;28;19976;-53
2023/12/31 12:16:58;;;;;;;;;;;;;;;;;;5042957;28;20085;-49
2023/12/31 12:19:25;;;;;;;;;;;;;;;;;;5042550;28;19928;-53
2023/12/31 12:21:51;;;;;;;;;;;;;;;;;;5042767;28;19936;-53
2023/12/31 12:24:17;;;;;;;;;;;;;;;;;;5042562;28;19917;-53
2023/12/31 12:26:43;;;;;;;;;;;;;;;;;;5042522;28;20182;-51
2023/12/31 12:29:10;;;;;;;;;;;;;;;;;;5042551;28;19909;-53
2023/12/31 12:31:36;;;;;;;;;;;;;;;;;;5042428;28;19909;-51
2023/12/31 12:34:02;;;;;;;;;;;;;;;;;;5042343;28;19957;-52
2023/12/31 12:36:28;;;;;;;;;;;;;;;;;;5042414;28;20189;-53
2023/12/31 12:38:59;;;;;;;;;;;;;;;;;;5042489;28;19946;-52
2023/12/31 12:41:25;;;;;;;;;;;;;;;;;;5042196;28;20185;-53
2023/12/31 12:43:51;;;;;;;;;;;;;;;;;;5042222;28;19975;-52
2023/12/31 12:46:18;;;;;;;;;;;;;;;;;;5042106;28;19905;-51
2023/12/31 12:48:44;;;;;;;;;;;;;;;;;;5041945;28;19910;-55
2023/12/31 12:51:10;;;;;;;;;;;;;;;;;;5042366;28;19976;-54
2023/12/31 12:53:36;;;;;;;;;;;;;;;;;;5041862;28;19958;-54
2023/12/31 12:56:02;;;;;;;;;;;;;;;;;;5041913;28;19937;-51
2023/12/31 12:58:28;;;;;;;;;;;;;;;;;;5042793;28;20126;-56
2023/12/31 13:00:55;;;;;;;;;;;;;;;;;;5042123;28;19909;-52
2023/12/31 13:03:21;;;;;;;;;;;;;;;;;;5042277;28;19954;-54
2023/12/31 13:05:47;;;;;;;;;;;;;;;;;;5042143;28;19916;-49
2023/12/31 13:08:13;;;;;;;;;;;;;;;;;;5041543;28;20219;-55
2023/12/31 13:10:39;;;;;;;;;;;;;;;;;;5041829;28;19932;-55
2023/12/31 13:13:06;;;;;;;;;;;;;;;;;;5042094;28;19934;-53
2023/12/31 13:15:33;;;;;;;;;;;;;;;;;;5041672;28;19916;-54
2023/12/31 13:18:00;;;;;;;;;;;;;;;;;;5042078;28;19993;-58
2023/12/31 13:20:26;;;;;;;;;;;;;;;;;;5041534;28;19909;-53
2023/12/31 13:22:52;;;;;;;;;;;;;;;;;;5041779;28;20215;-54
2023/12/31 13:25:18;;;;;;;;;;;;;;;;;;5041615;28;19950;-57
2023/12/31 13:27:44;;;;;;;;;;;;;;;;;;5041770;28;19978;-58
2023/12/31 13:30:10;;;;;;;;;;;;;;;;;;5036287;28;20131;-53
2023/12/31 13:32:37;;;;;;;;;;;;;;;;;;5036189;28;19920;-56
2023/12/31 13:35:03;;;;;;;;;;;;;;;;;;5039706;28;19920;-52
2023/12/31 13:37:30;;;;;;;;;;;;;;;;;;5031129;28;19910;-52
2023/12/31 13:39:56;;;;;;;;;;;;;;;;;;5021603;28;20109;-55
2023/12/31 13:42:22;;;;;;;;;;;;;;;;;;5021536;28;19910;-55
2023/12/31 13:44:48;;;;;;;;;;;;;;;;;;5021538;28;19905;-54
2023/12/31 13:47:15;;;;;;;;;;;;;;;;;;5021682;28;19910;-52
2023/12/31 13:49:41;;;;;;;;;;;;;;;;;;5029680;28;20223;-48
2023/12/31 13:52:07;;;;;;;;;;;;;;;;;;5041353;28;19970;-50
2023/12/31 13:54:33;;;;;;;;;;;;;;;;;;5041693;28;19916;-54
2023/12/31 13:56:59;;;;;;;;;;;;;;;;;;5041477;28;19970;-53
2023/12/31 13:59:25;;;;;;;;;;;;;;;;;;5041238;28;19917;-55
2023/12/31 14:01:52;;;;;;;;;;;;;;;;;;5041308;28;19966;-53
2023/12/31 14:04:18;;;;;;;;;;;;;;;;;;5041162;28;19921;-53
2023/12/31 14:06:45;;;;;;;;;;;;;;;;;;5033100;28;19909;-53
2023/12/31 14:09:11;;;;;;;;;;;;;;;;;;5027120;28;19917;-53
2023/12/31 14:11:38;;;;;;;;;;;;;;;;;;5036633;28;20131;-53
2023/12/31 14:14:04;;;;;;;;;;;;;;;;;;5021066;28;19913;-55
2023/12/31 14:16:30;;;;;;;;;;;;;;;;;;5026174;28;19905;-59
2023/12/31 14:18:57;;;;;;;;;;;;;;;;;;5030884;28;19913;-52
2023/12/31 14:21:23;;;;;;;;;;;;;;;;;;5029100;28;19942;-58
2023/12/31 14:23:50;;;;;;;;;;;;;;;;;;5024945;28;19955;-51
2023/12/31 14:26:16;;;;;;;;;;;;;;;;;;5024680;28;19901;-54
2023/12/31 14:28:42;;;;;;;;;;;;;;;;;;5030459;28;19954;-49
2023/12/31 14:31:08;;;;;;;;;;;;;;;;;;5044558;28;19905;-49
2023/12/31 14:33:34;;;;;;;;;;;;;;;;;;5037404;28;19914;-55
2023/12/31 14:36:01;;;;;;;;;;;;;;;;;;5024374;28;19976;-55
2023/12/31 14:38:27;;;;;;;;;;;;;;;;;;5025207;28;19909;-53
2023/12/31 14:40:53;;;;;;;;;;;;;;;;;;5024535;28;19910;-57
2023/12/31 14:43:19;;;;;;;;;;;;;;;;;;5024639;28;19916;-56
2023/12/31 14:45:45;;;;;;;;;;;;;;;;;;5024616;28;19938;-58
2023/12/31 14:48:11;;;;;;;;;;;;;;;;;;5024760;28;19976;-54
2023/12/31 14:50:38;;;;;;;;;;;;;;;;;;5024316;28;19909;-49
2023/12/31 14:53:04;;;;;;;;;;;;;;;;;;5033366;28;19917;-58
2023/12/31 14:55:30;;;;;;;;;;;;;;;;;;5025769;28;19949;-58
2023/12/31 14:57:56;;;;;;;;;;;;;;;;;;5024515;28;20148;-56
2023/12/31 15:00:22;;;;;;;;;;;;;;;;;;5023906;28;19909;-57
2023/12/31 15:02:48;;;;;;;;;;;;;;;;;;5024444;28;19916;-49
2023/12/31 15:05:15;;;;;;;;;;;;;;;;;;5024023;28;19916;-49
2023/12/31 15:07:41;;;;;;;;;;;;;;;;;;5024159;28;19910;-54
2023/12/31 15:10:07;;;;;;;;;;;;;;;;;;5036227;28;19909;-56
2023/12/31 15:12:33;;;;;;;;;;;;;;;;;;5037848;28;19952;-60
2023/12/31 15:14:59;;;;;;;;;;;;;;;;;;5036634;28;19949;-58
2023/12/31 15:17:26;;;;;;;;;;;;;;;;;;5024066;28;20098;-58
2023/12/31 15:19:52;;;;;;;;;;;;;;;;;;5023983;28;20186;-60
2023/12/31 15:22:18;;;;;;;;;;;;;;;;;;5023704;28;19916;-58
2023/12/31 15:24:45;;;;;;;;;;;;;;;;;;5023953;28;19916;-59
2023/12/31 15:27:11;;;;;;;;;;;;;;;;;;5028558;28;19909;-51
2023/12/31 15:29:37;;;;;;;;;;;;;;;;;;5035447;28;19949;-57
2023/12/31 15:32:03;;;;;;;;;;;;;;;;;;5023108;28;19971;-54
2023/12/31 15:34:30;;;;;;;;;;;;;;;;;;5023574;28;19913;-54
2023/12/31 15:36:56;;;;;;;;;;;;;;;;;;5041125;28;19932;-59
2023/12/31 15:39:23;;;;;;;;;;;;;;;;;;5043231;28;19945;-58
2023/12/31 15:41:49;;;;;;;;;;;;;;;;;;5041589;28;19985;-60
2023/12/31 15:44:18;;;;;;;;;;;;;;;;;;5032031;28;19930;-56
2023/12/31 15:46:45;;;;;;;;;;;;;;;;;;5028882;28;19909;-59
2023/12/31 15:49:11;;;;;;;;;;;;;;;;;;5043218;28;19920;-56
2023/12/31 15:51:37;;;;;;;;;;;;;;;;;;5043058;28;19909;-56
2023/12/31 15:54:04;;;;;;;;;;;;;;;;;;5043012;28;19928;-55
2023/12/31 15:56:30;;;;;;;;;;;;;;;;;;5042912;28;20086;-60
2023/12/31 15:58:57;;;;;;;;;;;;;;;;;;5048907;27;19917;-61
2023/12/31 16:01:23;;;;;;;;;;;;;;;;;;5147149;27;20133;-65
2023/12/31 16:03:49;;;;;;;;;;;;;;;;;;5147432;27;19950;-59
2023/12/31 16:06:16;;;;;;;;;;;;;;;;;;5143677;27;19904;-48
2023/12/31 16:08:42;;;;;;;;;;;;;;;;;;5049858;28;19920;-56
2023/12/31 16:11:08;;;;;;;;;;;;;;;;;;5078456;27;19907;-50
2023/12/31 16:13:44;;;;;;;;;;;;;;;;;;5068408;27;20190;-50
2023/12/31 16:16:10;;;;;;;;;;;;;;;;;;5033254;28;19944;-61
2023/12/31 16:18:37;;;;;;;;;;;;;;;;;;5047111;28;19913;-51
2023/12/31 16:21:03;;;;;;;;;;;;;;;;;;5041851;28;19916;-56
2023/12/31 16:23:29;;;;;;;;;;;;;;;;;;5038058;28;19915;-57
2023/12/31 16:25:55;;;;;;;;;;;;;;;;;;5043376;27;19913;-62
2023/12/31 16:28:23;;;;;;;;;;;;;;;;;;5044407;27;19923;-55